Terminal Aerodrome Forecast
Issued by NWS

Home | Current Version | Previous Version | Text Only | Print | Product List | Glossary On
Versions: 1 2 3 4 5 6 7 8 9 10 11 12 13 14 15
932
FTUS43 KEAX 051127
TAFSTJ
TAF
KSTJ 051127Z 0512/0612 16007KT P6SM BKN150
     FM060300 30006KT P6SM BKN050=

USA.gov is the U.S. government's official web portal to all federal, state and local government web resources and services.